Time;durP1;ratioP1;P1;durP2;ratioP2;P2;SDS_P1;SDS_P2;PMS_P1;PMS_P2;Temp;Humidity;BMP_temperature;BMP_pressure;BME280_temperature;BME280_humidity;BME280_pressure;Samples;Min_cycle;Max_cycle;Signal;HPM_P1;HPM_P2
2023/06/14 00:01:34;;;;;;;1.85;0.80;;;15.70;1.00;;;;;;5053134;28;20127;-66
2023/06/14 00:04:01;;;;;;;1.38;0.70;;;15.60;1.00;;;;;;5052738;28;20064;-66
2023/06/14 00:06:28;;;;;;;2.63;0.75;;;15.70;1.00;;;;;;5052748;28;20037;-66
2023/06/14 00:08:54;;;;;;;1.77;0.93;;;15.70;1.00;;;;;;5053046;28;20029;-66
2023/06/14 00:11:20;;;;;;;1.00;0.70;;;15.70;1.00;;;;;;5052998;28;20499;-66
2023/06/14 00:13:46;;;;;;;2.28;0.90;;;15.60;1.00;;;;;;5035093;28;20391;-66
2023/06/14 00:16:12;;;;;;;1.95;0.82;;;16.30;1.00;;;;;;5053000;28;20036;-66
2023/06/14 00:18:38;;;;;;;3.45;1.05;;;15.50;1.00;;;;;;5052888;28;20115;-66
2023/06/14 00:21:04;;;;;;;1.75;1.02;;;15.50;1.00;;;;;;5052891;28;20044;-66
2023/06/14 00:23:30;;;;;;;2.47;0.63;;;15.50;1.00;;;;;;5034987;28;20500;-66
2023/06/14 00:25:56;;;;;;;1.63;0.95;;;15.40;1.00;;;;;;5052690;28;20037;-66
2023/06/14 00:28:22;;;;;;;1.60;0.80;;;15.40;1.00;;;;;;5052783;28;20123;-66
2023/06/14 00:30:48;;;;;;;1.60;0.70;;;15.80;1.00;;;;;;5052746;28;20033;-66
2023/06/14 00:33:14;;;;;;;1.33;0.57;;;15.30;1.00;;;;;;5051154;28;20044;-66
2023/06/14 00:35:39;;;;;;;0.75;0.63;;;15.30;1.00;;;;;;5051308;28;20037;-66
2023/06/14 00:38:05;;;;;;;1.25;0.80;;;15.30;1.00;;;;;;5052711;28;20118;-66
2023/06/14 00:40:31;;;;;;;1.05;0.75;;;15.30;1.00;;;;;;5052744;28;20040;-66
2023/06/14 00:42:56;;;;;;;1.80;0.90;;;15.20;1.00;;;;;;5052789;28;20090;-66
2023/06/14 00:45:22;;;;;;;2.70;0.70;;;15.20;1.00;;;;;;5051387;28;20108;-66
2023/06/14 00:47:52;;;;;;;2.75;1.00;;;15.40;1.00;;;;;;5052361;28;20041;-66
2023/06/14 00:50:17;;;;;;;1.33;0.75;;;15.10;1.00;;;;;;5052665;28;20037;-66
2023/06/14 00:52:43;;;;;;;4.18;0.70;;;15.10;1.00;;;;;;5067747;28;20037;-66
2023/06/14 00:55:09;;;;;;;1.60;0.60;;;15.00;1.00;;;;;;5053986;28;20037;-66
2023/06/14 00:57:37;;;;;;;1.30;0.80;;;15.10;1.00;;;;;;5056287;28;20040;-66
2023/06/14 01:00:08;;;;;;;2.05;0.98;;;15.00;1.00;;;;;;5056207;28;20118;-66
2023/06/14 01:02:36;;;;;;;1.80;0.80;;;15.00;1.00;;;;;;5056220;28;20056;-66
2023/06/14 01:05:02;;;;;;;0.65;0.52;;;14.90;1.00;;;;;;5056466;28;20536;-66
2023/06/14 01:07:40;;;;;;;3.13;0.93;;;14.90;1.00;;;;;;5056338;28;20047;-66
2023/06/14 01:10:53;;;;;;;4.55;0.77;;;14.90;1.00;;;;;;5056074;28;20072;-66
2023/06/14 01:13:32;;;;;;;4.32;0.70;;;14.90;1.00;;;;;;5055022;28;20052;-67
2023/06/14 01:15:59;;;;;;;3.33;0.80;;;14.80;1.00;;;;;;5038145;28;20115;-66
2023/06/14 01:18:27;;;;;;;0.85;0.60;;;14.80;1.00;;;;;;5056162;28;20465;-66
2023/06/14 01:20:54;;;;;;;2.25;1.10;;;14.80;1.00;;;;;;5056193;28;20052;-66
2023/06/14 01:23:22;;;;;;;2.22;1.10;;;14.50;1.00;;;;;;5054584;28;20496;-66
2023/06/14 01:25:52;;;;;;;2.22;0.90;;;14.70;1.00;;;;;;5054504;28;20040;-66
2023/06/14 01:28:20;;;;;;;1.65;0.90;;;14.70;1.00;;;;;;5055926;28;20069;-66
2023/06/14 01:30:49;;;;;;;2.00;0.90;;;14.60;1.00;;;;;;5055965;28;20542;-66
2023/06/14 01:33:18;;;;;;;2.08;0.50;;;14.70;1.00;;;;;;5055557;28;20123;-66
2023/06/14 01:35:47;;;;;;;1.35;0.70;;;14.60;1.00;;;;;;5054416;28;20435;-66
2023/06/14 01:38:14;;;;;;;1.60;0.98;;;14.50;1.00;;;;;;5055906;28;20037;-66
2023/06/14 01:40:42;;;;;;;3.10;0.80;;;14.50;1.00;;;;;;5055816;28;20401;-66
2023/06/14 01:43:09;;;;;;;2.08;0.93;;;15.20;1.00;;;;;;5054462;28;20507;-66
2023/06/14 01:45:36;;;;;;;1.83;0.88;;;14.50;1.00;;;;;;5055670;28;20037;-66
2023/06/14 01:48:03;;;;;;;1.27;0.60;;;14.50;1.00;;;;;;5054507;28;20079;-66
2023/06/14 01:50:30;;;;;;;3.25;0.85;;;14.50;1.00;;;;;;5055632;28;20362;-66
2023/06/14 01:52:56;;;;;;;2.30;0.90;;;14.50;1.00;;;;;;5055589;28;20044;-66
2023/06/14 01:55:21;;;;;;;1.05;0.75;;;14.40;1.00;;;;;;5055186;28;20033;-66
2023/06/14 01:57:47;;;;;;;2.05;0.85;;;14.40;1.00;;;;;;5053920;28;20044;-66
2023/06/14 02:00:14;;;;;;;1.02;0.77;;;14.40;1.00;;;;;;5055133;28;20063;-65
2023/06/14 02:02:40;;;;;;;3.17;0.90;;;14.30;1.00;;;;;;5053922;28;20409;-66
2023/06/14 02:05:07;;;;;;;1.45;0.90;;;14.30;1.00;;;;;;5055026;28;20138;-65
2023/06/14 02:07:33;;;;;;;2.35;1.00;;;14.30;1.00;;;;;;5053902;28;20053;-66
2023/06/14 02:09:59;;;;;;;2.08;0.95;;;14.30;1.00;;;;;;5053934;28;20033;-66
2023/06/14 02:12:25;;;;;;;6.82;1.27;;;14.30;1.00;;;;;;5053636;28;20134;-66
2023/06/14 02:14:51;;;;;;;4.05;1.10;;;14.20;1.00;;;;;;5055223;28;20084;-66
2023/06/14 02:17:17;;;;;;;0.65;0.63;;;14.20;1.00;;;;;;5055078;28;20489;-66
2023/06/14 02:19:43;;;;;;;1.38;0.80;;;14.10;1.00;;;;;;5053776;28;20501;-66
2023/06/14 02:22:09;;;;;;;2.33;1.48;;;14.20;1.00;;;;;;5053589;28;20059;-66
2023/06/14 02:24:35;;;;;;;1.17;0.60;;;14.10;1.00;;;;;;5054701;28;20041;-66
2023/06/14 02:27:01;;;;;;;1.50;1.00;;;14.10;1.00;;;;;;5054833;28;20084;-66
2023/06/14 02:29:27;;;;;;;1.65;1.33;;;14.10;1.00;;;;;;5054840;28;20492;-66
2023/06/14 02:31:52;;;;;;;0.95;0.70;;;14.10;1.00;;;;;;5054932;28;20073;-66
2023/06/14 02:34:19;;;;;;;1.15;0.80;;;14.00;1.00;;;;;;5054507;28;20037;-66
2023/06/14 02:36:45;;;;;;;1.17;0.80;;;14.00;1.00;;;;;;5054807;28;20075;-66
2023/06/14 02:39:11;;;;;;;2.47;1.15;;;14.00;1.00;;;;;;5054817;28;20080;-65
2023/06/14 02:41:37;;;;;;;1.20;0.80;;;14.30;1.00;;;;;;5054566;28;20480;-66
2023/06/14 02:44:03;;;;;;;1.23;0.80;;;13.90;1.00;;;;;;5053321;28;20496;-66
2023/06/14 02:46:29;;;;;;;2.28;1.00;;;13.90;1.00;;;;;;5052938;28;20049;-65
2023/06/14 02:48:54;;;;;;;1.63;0.82;;;13.80;1.00;;;;;;5054567;28;20422;-66
2023/06/14 02:51:20;;;;;;;1.23;0.90;;;13.90;1.00;;;;;;5054480;28;20037;-66
2023/06/14 02:53:45;;;;;;;8.90;2.00;;;14.10;1.00;;;;;;5053218;28;20056;-66
2023/06/14 02:56:11;;;;;;;1.17;0.70;;;14.20;1.00;;;;;;5054320;28;20040;-66
2023/06/14 02:58:39;;;;;;;1.52;0.93;;;13.70;1.00;;;;;;5069547;28;20512;-66
2023/06/14 03:01:05;;;;;;;1.23;0.95;;;13.70;1.00;;;;;;5036446;28;20040;-65
2023/06/14 03:03:31;;;;;;;1.30;0.85;;;13.70;1.00;;;;;;5053950;28;20057;-66
2023/06/14 03:05:57;;;;;;;2.08;1.10;;;13.70;1.00;;;;;;5053789;28;20397;-66
2023/06/14 03:08:27;;;;;;;1.63;1.10;;;13.70;1.00;;;;;;5054171;28;20091;-66
2023/06/14 03:10:53;;;;;;;1.10;0.80;;;13.70;1.00;;;;;;5054168;28;20055;-65
2023/06/14 03:13:22;;;;;;;1.83;0.80;;;13.70;1.00;;;;;;5036226;28;20477;-65
2023/06/14 03:15:50;;;;;;;2.70;0.90;;;13.60;1.00;;;;;;5052533;28;20151;-65
2023/06/14 03:18:16;;;;;;;2.08;0.88;;;13.60;1.00;;;;;;5053813;28;20463;-65
2023/06/14 03:20:42;;;;;;;2.85;1.20;;;13.60;1.00;;;;;;5052522;28;20499;-65
2023/06/14 03:23:08;;;;;;;2.38;1.10;;;13.50;1.00;;;;;;5052323;28;20087;-66
2023/06/14 03:25:38;;;;;;;1.83;0.93;;;13.60;1.00;;;;;;5053808;28;20029;-66
2023/06/14 03:28:07;;;;;;;3.67;0.93;;;13.50;1.00;;;;;;5069220;28;20103;-65
2023/06/14 03:30:32;;;;;;;1.05;0.68;;;13.50;1.00;;;;;;5053421;28;20076;-65
2023/06/14 03:33:00;;;;;;;6.65;0.93;;;13.50;1.00;;;;;;5052206;28;20531;-66
2023/06/14 03:35:26;;;;;;;3.03;0.90;;;13.60;1.00;;;;;;5053632;28;20045;-65
2023/06/14 03:37:52;;;;;;;1.77;0.98;;;13.60;1.00;;;;;;5053661;28;20416;-66
2023/06/14 03:40:19;;;;;;;1.33;0.90;;;13.50;1.00;;;;;;5053578;28;20037;-66
2023/06/14 03:42:45;;;;;;;1.67;1.10;;;13.50;1.00;;;;;;5052068;28;20424;-65
2023/06/14 03:45:11;;;;;;;1.20;0.90;;;14.20;1.00;;;;;;5053515;28;20048;-65
2023/06/14 03:47:36;;;;;;;2.00;0.98;;;13.50;1.00;;;;;;5053347;28;20074;-66
2023/06/14 03:50:03;;;;;;;1.80;1.25;;;13.50;1.00;;;;;;5053093;28;20120;-66
2023/06/14 03:52:29;;;;;;;0.85;0.63;;;13.50;1.00;;;;;;5053088;28;20087;-65
2023/06/14 03:54:55;;;;;;;5.72;0.90;;;13.60;1.00;;;;;;5052087;28;20053;-65
2023/06/14 03:57:22;;;;;;;0.80;0.80;;;13.50;1.00;;;;;;5053274;28;20041;-66
2023/06/14 03:59:48;;;;;;;2.55;1.20;;;13.50;1.00;;;;;;5052034;28;20083;-65
2023/06/14 04:02:15;;;;;;;2.97;1.00;;;13.50;1.00;;;;;;5051549;28;20439;-66
2023/06/14 04:04:44;;;;;;;1.83;1.20;;;13.60;1.00;;;;;;5052915;28;20041;-66
2023/06/14 04:07:11;;;;;;;3.67;1.02;;;14.00;1.00;;;;;;5053081;28;20115;-66
2023/06/14 04:09:37;;;;;;;1.42;0.80;;;13.70;1.00;;;;;;5052996;28;20342;-66
2023/06/14 04:12:03;;;;;;;1.50;0.90;;;13.70;1.00;;;;;;5035237;28;20041;-65
2023/06/14 04:14:30;;;;;;;2.00;1.10;;;13.70;1.00;;;;;;5052925;28;20417;-65
2023/06/14 04:16:56;;;;;;;2.70;1.70;;;13.60;1.00;;;;;;5051430;28;20044;-65
2023/06/14 04:19:22;;;;;;;1.25;1.00;;;13.60;1.00;;;;;;5052664;28;20094;-66
2023/06/14 04:21:47;;;;;;;2.25;1.15;;;13.70;1.00;;;;;;5053076;28;20048;-65
2023/06/14 04:24:13;;;;;;;2.03;1.23;;;14.50;1.00;;;;;;5051364;28;20104;-65
2023/06/14 04:26:41;;;;;;;4.43;1.20;;;13.70;1.00;;;;;;5052822;28;20163;-65
2023/06/14 04:29:07;;;;;;;3.25;1.10;;;13.80;1.00;;;;;;5051081;28;20595;-66
2023/06/14 04:31:39;;;;;;;2.45;1.17;;;13.90;1.00;;;;;;5052813;28;20124;-66
2023/06/14 04:34:05;;;;;;;1.77;0.95;;;13.90;1.00;;;;;;5051291;28;20051;-66
2023/06/14 04:36:36;;;;;;;2.60;1.20;;;14.30;1.00;;;;;;5052853;28;20437;-66
2023/06/14 04:39:03;;;;;;;;;;;13.90;1.00;;;;;;5051672;28;20095;-66
2023/06/14 04:41:32;;;;;;;2.28;1.10;;;13.90;1.00;;;;;;5052454;28;19928;-66
2023/06/14 04:44:01;;;;;;;2.28;1.20;;;14.10;1.00;;;;;;5052694;28;20083;-66
2023/06/14 04:46:32;;;;;;;1.48;0.90;;;14.10;1.00;;;;;;5052685;28;20499;-66
2023/06/14 04:49:02;;;;;;;2.72;1.10;;;14.20;1.00;;;;;;5052786;28;20044;-66
2023/06/14 04:51:29;;;;;;;1.95;1.13;;;14.20;1.00;;;;;;5052343;28;20044;-66
2023/06/14 04:54:01;;;;;;;3.53;1.30;;;14.40;1.00;;;;;;5052670;28;20095;-66
2023/06/14 04:56:26;;;;;;;2.95;1.20;;;14.40;1.00;;;;;;5051358;28;20488;-66
2023/06/14 04:58:53;;;;;;;4.38;0.93;;;14.50;1.00;;;;;;5052240;28;20071;-66
2023/06/14 05:01:21;;;;;;;4.50;1.02;;;14.60;1.00;;;;;;5052496;28;20475;-66
2023/06/14 05:03:48;;;;;;;1.58;1.17;;;14.70;1.00;;;;;;5052135;28;20075;-66
2023/06/14 05:06:14;;;;;;;2.28;1.27;;;14.80;1.00;;;;;;5067502;28;20049;-66
2023/06/14 05:08:40;;;;;;;1.45;1.02;;;15.00;1.00;;;;;;5050905;28;20106;-66
2023/06/14 05:11:05;;;;;;;2.40;1.27;;;15.50;1.00;;;;;;5052458;28;20435;-65
2023/06/14 05:13:32;;;;;;;1.10;0.90;;;15.10;1.00;;;;;;5052354;28;20460;-66
2023/06/14 05:15:59;;;;;;;2.83;1.33;;;15.70;1.00;;;;;;5051266;28;20400;-65
2023/06/14 05:18:25;;;;;;;1.67;1.10;;;15.40;1.00;;;;;;5052379;28;20083;-66
2023/06/14 05:20:51;;;;;;;2.15;1.20;;;15.40;1.00;;;;;;5052394;28;20060;-65
2023/06/14 05:23:16;;;;;;;2.33;1.17;;;15.60;1.00;;;;;;5052342;28;20040;-63
2023/06/14 05:25:43;;;;;;;3.47;1.77;;;15.60;1.00;;;;;;5051083;28;20056;-65
2023/06/14 05:28:09;;;;;;;3.22;1.33;;;15.80;1.00;;;;;;5051940;28;20045;-65
2023/06/14 05:30:35;;;;;;;0.93;0.82;;;16.10;1.00;;;;;;5052288;28;20059;-65
2023/06/14 05:33:01;;;;;;;3.25;1.45;;;15.80;1.00;;;;;;5050968;28;20037;-66
2023/06/14 05:35:26;;;;;;;1.83;1.20;;;16.10;1.00;;;;;;5051899;28;20370;-65
2023/06/14 05:37:53;;;;;;;3.88;1.60;;;16.20;1.00;;;;;;5052236;28;20044;-66
2023/06/14 05:40:19;;;;;;;3.17;1.67;;;16.40;1.00;;;;;;5034052;28;20136;-66
2023/06/14 05:42:45;;;;;;;1.58;1.20;;;16.50;1.00;;;;;;5052956;28;20128;-67
2023/06/14 05:45:11;;;;;;;5.47;1.50;;;16.70;1.00;;;;;;5055798;28;20037;-70
2023/06/14 05:47:37;;;;;;;3.05;1.48;;;16.60;1.00;;;;;;5055244;28;20056;-64
2023/06/14 05:50:03;;;;;;;2.55;1.35;;;16.60;1.00;;;;;;5055588;28;20074;-64
2023/06/14 05:52:29;;;;;;;2.78;1.67;;;17.00;1.00;;;;;;5055460;28;20048;-66
2023/06/14 05:54:55;;;;;;;4.07;1.25;;;17.10;1.00;;;;;;5055461;28;20103;-65
2023/06/14 05:57:20;;;;;;;2.53;1.30;;;17.20;1.00;;;;;;5055497;28;20036;-65
2023/06/14 05:59:46;;;;;;;1.50;1.15;;;17.30;1.00;;;;;;5055514;28;20033;-68
2023/06/14 06:02:12;;;;;;;2.15;1.25;;;17.40;1.00;;;;;;5055373;28;20091;-64
2023/06/14 06:04:37;;;;;;;2.47;1.25;;;17.60;1.00;;;;;;5053856;28;20113;-67
2023/06/14 06:07:03;;;;;;;5.93;1.40;;;17.70;1.00;;;;;;5055315;28;20449;-65
2023/06/14 06:09:29;;;;;;;7.55;1.60;;;17.80;1.00;;;;;;5053764;28;20090;-66
2023/06/14 06:11:55;;;;;;;2.92;1.60;;;17.90;1.00;;;;;;5055146;28;20033;-66
2023/06/14 06:14:21;;;;;;;4.30;1.45;;;18.00;1.00;;;;;;5055152;28;20553;-70
2023/06/14 06:16:46;;;;;;;2.70;1.35;;;18.20;1.00;;;;;;5037025;28;20041;-68
2023/06/14 06:19:12;;;;;;;2.03;1.10;;;18.30;1.00;;;;;;5055045;28;20040;-68
2023/06/14 06:21:38;;;;;;;2.08;1.27;;;18.40;1.00;;;;;;5053477;28;20041;-65
2023/06/14 06:24:05;;;;;;;2.45;1.45;;;18.70;1.00;;;;;;5053813;28;20446;-65
2023/06/14 06:26:31;;;;;;;7.13;1.33;;;18.50;1.00;;;;;;5054884;28;20040;-65
2023/06/14 06:28:58;;;;;;;1.83;1.08;;;;;;;;;;5055016;28;20562;-65
2023/06/14 06:31:25;;;;;;;1.73;1.15;;;18.90;1.00;;;;;;5054608;28;20041;-65
2023/06/14 06:33:51;;;;;;;0.93;0.75;;;19.00;1.00;;;;;;5054931;28;20037;-65
2023/06/14 06:36:17;;;;;;;2.78;1.25;;;19.10;1.00;;;;;;5053181;28;20052;-65
2023/06/14 06:38:42;;;;;;;3.33;1.15;;;19.20;1.00;;;;;;5053141;28;20041;-65
2023/06/14 06:41:08;;;;;;;4.63;1.30;;;19.30;1.00;;;;;;5054607;28;20041;-66
2023/06/14 06:43:34;;;;;;;1.10;0.80;;;19.40;1.00;;;;;;5053353;28;20116;-66
2023/06/14 06:46:00;;;;;;;2.83;1.13;;;19.60;1.00;;;;;;5054487;28;20504;-66
2023/06/14 06:48:25;;;;;;;3.05;1.20;;;19.70;1.00;;;;;;5053170;28;20337;-66
2023/06/14 06:50:52;;;;;;;1.48;0.98;;;19.90;1.00;;;;;;5054444;28;20037;-67
2023/06/14 06:53:18;;;;;;;1.10;1.00;;;20.00;1.00;;;;;;5053948;28;20044;-66
2023/06/14 06:55:44;;;;;;;1.90;0.95;;;20.00;1.00;;;;;;5052848;28;20055;-66
2023/06/14 06:58:10;;;;;;;1.70;1.27;;;20.10;1.00;;;;;;5052774;28;20471;-66
2023/06/14 07:00:36;;;;;;;3.22;1.20;;;20.20;1.00;;;;;;5054168;28;20175;-66
2023/06/14 07:03:03;;;;;;;2.05;1.20;;;20.40;1.00;;;;;;5053930;28;20057;-66
2023/06/14 07:05:29;;;;;;;4.25;1.20;;;20.30;1.00;;;;;;5054180;28;20060;-65
2023/06/14 07:07:56;;;;;;;1.30;1.00;;;20.40;1.00;;;;;;5053904;28;20045;-66
2023/06/14 07:10:22;;;;;;;4.25;1.10;;;20.40;1.00;;;;;;5054108;28;20037;-66
2023/06/14 07:12:47;;;;;;;3.85;1.13;;;20.60;1.00;;;;;;5054158;28;20378;-65
2023/06/14 07:15:13;;;;;;;1.67;0.98;;;20.80;1.00;;;;;;5052488;28;20037;-66
2023/06/14 07:17:39;;;;;;;1.58;1.08;;;20.90;1.00;;;;;;5035871;28;20044;-66
2023/06/14 07:20:08;;;;;;;2.80;1.33;;;21.10;1.00;;;;;;5035840;28;20451;-65
2023/06/14 07:22:33;;;;;;;3.08;1.30;;;21.00;1.00;;;;;;5052370;28;20041;-66
2023/06/14 07:24:59;;;;;;;4.93;1.33;;;21.10;1.00;;;;;;5053791;28;20075;-66
2023/06/14 07:27:25;;;;;;;1.85;1.20;;;21.00;1.00;;;;;;5052288;28;20048;-66
2023/06/14 07:29:50;;;;;;;1.92;1.10;;;21.10;1.00;;;;;;5053641;28;20120;-66
2023/06/14 07:32:16;;;;;;;1.95;1.20;;;21.30;1.00;;;;;;5052140;28;20447;-65
2023/06/14 07:34:41;;;;;;;1.13;0.88;;;21.30;1.00;;;;;;5053576;28;20036;-67
2023/06/14 07:37:07;;;;;;;1.98;1.13;;;21.40;1.00;;;;;;5052290;28;20084;-67
2023/06/14 07:39:33;;;;;;;3.80;1.20;;;21.40;1.00;;;;;;5053514;28;20033;-66
2023/06/14 07:41:58;;;;;;;4.07;1.15;;;21.60;1.00;;;;;;5052008;28;20040;-65
2023/06/14 07:44:24;;;;;;;1.88;1.30;;;21.70;1.00;;;;;;5053387;28;20524;-66
2023/06/14 07:46:49;;;;;;;1.67;1.00;;;21.60;1.00;;;;;;5053342;28;20029;-66
2023/06/14 07:49:15;;;;;;;1.77;1.02;;;21.60;1.00;;;;;;5053341;28;20091;-65
2023/06/14 07:51:41;;;;;;;2.53;1.15;;;21.80;1.00;;;;;;5053348;28;20044;-65
2023/06/14 07:54:08;;;;;;;1.27;0.95;;;21.90;1.00;;;;;;5053276;28;20534;-62
2023/06/14 07:56:35;;;;;;;1.58;1.05;;;22.00;1.00;;;;;;5052891;28;20063;-62
2023/06/14 07:59:01;;;;;;;2.85;1.23;;;22.00;1.00;;;;;;5053278;28;20037;-62
2023/06/14 08:01:27;;;;;;;1.90;1.10;;;22.10;1.00;;;;;;5052806;28;20404;-63
2023/06/14 08:03:53;;;;;;;1.45;1.00;;;22.30;1.00;;;;;;5052371;28;20443;-62
2023/06/14 08:06:19;;;;;;;1.73;1.00;;;22.40;1.00;;;;;;5052820;28;20045;-62
2023/06/14 08:08:44;;;;;;;1.33;1.10;;;22.30;1.00;;;;;;5053003;28;20066;-62
2023/06/14 08:11:10;;;;;;;2.97;1.25;;;22.40;1.00;;;;;;5053088;28;20076;-62
2023/06/14 08:13:35;;;;;;;1.58;1.02;;;22.30;1.00;;;;;;5052931;28;20116;-62
2023/06/14 08:16:01;;;;;;;1.30;1.10;;;22.50;1.00;;;;;;5052928;28;20037;-63
2023/06/14 08:18:27;;;;;;;1.63;0.80;;;22.60;1.00;;;;;;5068035;28;20064;-63
2023/06/14 08:20:54;;;;;;;2.95;1.00;;;22.70;1.00;;;;;;5052926;28;20091;-62
2023/06/14 08:23:21;;;;;;;1.95;1.27;;;22.60;1.00;;;;;;5052915;28;20041;-62
2023/06/14 08:25:46;;;;;;;1.30;0.95;;;22.60;1.00;;;;;;5052843;28;20045;-62
2023/06/14 08:28:12;;;;;;;3.00;1.20;;;22.60;1.00;;;;;;5052793;28;20037;-62
2023/06/14 08:30:38;;;;;;;2.63;1.52;;;22.60;1.00;;;;;;5051604;28;20036;-62
2023/06/14 08:33:03;;;;;;;2.25;0.88;;;22.70;1.00;;;;;;5052444;28;20373;-62
2023/06/14 08:35:29;;;;;;;1.63;1.00;;;22.70;1.00;;;;;;5051247;28;20045;-62
2023/06/14 08:37:55;;;;;;;0.93;0.85;;;22.80;1.00;;;;;;5051258;28;20041;-63
2023/06/14 08:40:23;;;;;;;1.77;0.90;;;23.10;1.00;;;;;;5052425;28;20105;-62
2023/06/14 08:42:54;;;;;;;1.13;0.90;;;22.90;1.00;;;;;;5051366;28;20445;-62
2023/06/14 08:45:21;;;;;;;1.13;1.00;;;22.90;1.00;;;;;;5052395;28;20045;-62
2023/06/14 08:47:51;;;;;;;3.00;1.27;;;23.00;1.00;;;;;;5052550;28;20492;-62
2023/06/14 08:50:26;;;;;;;3.00;1.33;;;22.70;1.00;;;;;;5051427;28;20492;-63
2023/06/14 08:52:57;;;;;;;1.70;1.05;;;23.00;1.00;;;;;;5051390;28;20075;-65
2023/06/14 08:55:26;;;;;;;2.13;1.27;;;23.00;1.00;;;;;;5051374;28;20102;-66
2023/06/14 08:57:55;;;;;;;2.85;1.25;;;22.90;1.00;;;;;;5051053;28;20053;-66
2023/06/14 09:00:24;;;;;;;5.25;1.20;;;23.00;1.00;;;;;;5034440;28;20045;-66
2023/06/14 09:02:55;;;;;;;2.55;1.38;;;23.10;1.00;;;;;;5052075;28;20049;-66
2023/06/14 09:05:23;;;;;;;2.17;1.13;;;23.20;1.00;;;;;;5052527;28;20060;-66
2023/06/14 09:07:50;;;;;;;1.00;0.90;;;23.20;1.00;;;;;;5051002;28;20523;-66
2023/06/14 09:10:16;;;;;;;3.08;1.13;;;23.40;1.00;;;;;;5052555;28;20481;-66
2023/06/14 09:12:43;;;;;;;1.77;1.05;;;23.40;1.00;;;;;;5051221;28;20495;-66
2023/06/14 09:15:09;;;;;;;1.13;0.90;;;23.50;1.00;;;;;;5052535;28;20044;-66
2023/06/14 09:17:36;;;;;;;1.23;0.70;;;23.50;1.00;;;;;;5056175;28;20037;-66
2023/06/14 09:20:06;;;;;;;1.38;1.00;;;23.50;1.00;;;;;;5056279;28;20041;-66
2023/06/14 09:22:33;;;;;;;2.95;0.98;;;23.60;1.00;;;;;;5055991;28;20053;-66
2023/06/14 09:24:59;;;;;;;1.75;1.00;;;23.50;1.00;;;;;;5054666;28;20070;-66
2023/06/14 09:27:26;;;;;;;2.15;1.23;;;23.50;1.00;;;;;;5037989;28;20404;-66
2023/06/14 09:29:52;;;;;;;1.73;1.10;;;23.50;1.00;;;;;;5054848;28;20045;-66
2023/06/14 09:32:18;;;;;;;2.13;1.05;;;23.50;1.00;;;;;;5055701;28;20041;-66
2023/06/14 09:34:46;;;;;;;2.67;1.15;;;23.60;1.00;;;;;;5055712;28;20033;-66
2023/06/14 09:37:12;;;;;;;1.85;1.13;;;23.60;1.00;;;;;;5055930;28;20045;-66
2023/06/14 09:39:50;;;;;;;3.97;1.05;;;23.60;1.00;;;;;;5054380;28;20045;-66
2023/06/14 09:42:20;;;;;;;1.20;0.98;;;23.50;1.00;;;;;;5054546;28;20401;-66
2023/06/14 09:44:49;;;;;;;1.52;0.85;;;23.70;1.00;;;;;;5037662;28;20101;-66
2023/06/14 09:47:15;;;;;;;1.70;0.82;;;23.70;1.00;;;;;;5055351;28;20052;-66
2023/06/14 09:49:42;;;;;;;1.98;1.38;;;23.80;1.00;;;;;;5054394;28;20037;-66
2023/06/14 09:52:11;;;;;;;1.52;0.85;;;23.90;1.00;;;;;;5055663;28;20037;-66
2023/06/14 09:54:46;;;;;;;3.78;0.98;;;24.00;1.00;;;;;;5054363;28;20135;-66
2023/06/14 09:57:13;;;;;;;1.17;0.90;;;24.00;1.00;;;;;;5054106;28;20051;-66
2023/06/14 09:59:58;;;;;;;1.40;1.00;;;24.00;1.00;;;;;;5037680;28;20048;-64
2023/06/14 10:02:37;;;;;;;1.30;1.00;;;23.70;1.00;;;;;;5055091;28;20045;-65
2023/06/14 10:05:15;;;;;;;2.20;0.90;;;23.80;1.00;;;;;;5055338;28;20088;-66
2023/06/14 10:08:00;;;;;;;0.77;0.70;;;23.80;1.00;;;;;;5055213;28;20499;-65
2023/06/14 10:10:25;;;;;;;1.90;0.90;;;23.60;1.00;;;;;;5053885;28;20096;-66
2023/06/14 10:12:54;;;;;;;1.02;0.80;;;23.80;1.00;;;;;;5054783;28;20076;-66
2023/06/14 10:15:32;;;;;;;0.82;0.57;;;23.90;1.00;;;;;;5036913;28;20044;-66
2023/06/14 10:18:37;;;;;;;1.27;0.73;;;24.00;1.00;;;;;;5055171;28;20504;-66
2023/06/14 10:21:09;;;;;;;2.20;0.85;;;23.90;1.00;;;;;;5055026;28;20099;-66
2023/06/14 10:23:40;;;;;;;0.85;0.80;;;23.90;1.00;;;;;;5055037;28;20095;-66
2023/06/14 10:26:05;;;;;;;;;;;23.90;1.00;;;;;;5053833;28;20048;-68
2023/06/14 10:28:32;;;;;;;2.45;0.90;;;23.80;1.00;;;;;;5054190;28;19918;-66
2023/06/14 10:31:12;;;;;;;1.10;0.70;;;23.80;1.00;;;;;;5054955;28;20044;-66
2023/06/14 10:33:57;;;;;;;4.70;0.88;;;23.70;1.00;;;;;;5053322;28;20033;-66
2023/06/14 10:36:22;;;;;;;0.73;0.60;;;23.70;1.00;;;;;;5054771;28;20496;-66
2023/06/14 10:39:05;;;;;;;1.35;0.73;;;23.80;1.00;;;;;;5053117;28;20124;-66
2023/06/14 10:41:34;;;;;;;1.08;0.80;;;23.90;1.00;;;;;;5053385;28;20037;-66
2023/06/14 10:44:15;;;;;;;2.50;0.82;;;23.80;1.00;;;;;;5053135;28;20052;-65
2023/06/14 10:47:09;;;;;;;2.45;0.80;;;23.60;1.00;;;;;;5052878;28;20041;-65
2023/06/14 10:49:45;;;;;;;1.10;0.70;;;23.70;1.00;;;;;;5053127;28;20075;-62
2023/06/14 10:52:19;;;;;;;1.48;0.80;;;23.80;1.00;;;;;;5052981;28;20045;-62
2023/06/14 10:55:05;;;;;;;1.30;0.80;;;23.80;1.00;;;;;;5053157;28;20052;-62
2023/06/14 10:57:32;;;;;;;1.75;0.80;;;23.90;1.00;;;;;;5054323;28;20043;-62
2023/06/14 10:59:59;;;;;;;0.93;0.70;;;24.20;1.00;;;;;;5052752;28;20033;-62
2023/06/14 11:03:13;;;;;;;0.82;0.57;;;24.40;1.00;;;;;;5054027;28;20064;-62
2023/06/14 11:05:52;;;;;;;2.35;0.88;;;24.30;1.00;;;;;;5053696;28;20041;-62
2023/06/14 11:08:30;;;;;;;1.17;0.60;;;24.20;1.00;;;;;;5053787;28;20412;-62
2023/06/14 11:11:00;;;;;;;1.63;0.70;;;24.20;1.00;;;;;;5053976;28;20049;-62
2023/06/14 11:13:26;;;;;;;2.55;1.08;;;24.40;1.00;;;;;;5053681;28;20037;-62
2023/06/14 11:15:57;;;;;;;1.25;0.82;;;24.50;1.00;;;;;;5052541;28;20179;-62
2023/06/14 11:18:27;;;;;;;1.27;0.80;;;24.60;1.00;;;;;;5054021;28;20041;-62
2023/06/14 11:20:53;;;;;;;1.17;0.88;;;24.50;1.00;;;;;;5054228;28;20124;-62
2023/06/14 11:23:19;;;;;;;3.65;0.65;;;24.40;1.00;;;;;;5053564;28;20071;-62
2023/06/14 11:25:54;;;;;;;0.88;0.82;;;24.30;1.00;;;;;;5053805;28;20041;-62
2023/06/14 11:28:21;;;;;;;0.68;0.65;;;24.30;1.00;;;;;;5052168;28;20481;-62
2023/06/14 11:30:47;;;;;;;1.55;0.90;;;24.40;1.00;;;;;;5052159;28;20041;-62
2023/06/14 11:33:20;;;;;;;1.23;0.85;;;24.20;1.00;;;;;;5053311;28;20120;-62
2023/06/14 11:35:46;;;;;;;1.75;0.75;;;24.40;1.00;;;;;;5035396;28;20109;-62
2023/06/14 11:38:12;;;;;;;1.30;0.80;;;24.40;1.00;;;;;;5053137;28;20041;-62
2023/06/14 11:40:38;;;;;;;1.25;0.75;;;24.60;1.00;;;;;;5053300;28;20045;-63
2023/06/14 11:43:04;;;;;;;1.40;0.75;;;24.80;1.00;;;;;;5053267;28;20073;-62
2023/06/14 11:45:31;;;;;;;3.70;0.95;;;25.00;1.00;;;;;;5052984;28;20501;-62
2023/06/14 11:47:58;;;;;;;1.08;0.70;;;24.70;1.00;;;;;;5052143;28;20041;-62
2023/06/14 11:50:24;;;;;;;1.48;0.70;;;24.60;1.00;;;;;;5052088;28;20483;-62
2023/06/14 11:53:10;;;;;;;2.95;0.80;;;24.50;1.00;;;;;;5053425;28;20120;-62
2023/06/14 11:55:37;;;;;;;1.00;0.90;;;24.50;1.00;;;;;;5052015;28;20546;-62
2023/06/14 11:58:03;;;;;;;1.00;0.88;;;24.50;1.00;;;;;;5053323;28;20136;-62
2023/06/14 12:00:29;;;;;;;1.27;0.75;;;24.60;1.00;;;;;;5051787;28;20048;-62
2023/06/14 12:02:56;;;;;;;1.13;0.80;;;24.60;1.00;;;;;;5051570;28;20083;-63
2023/06/14 12:05:22;;;;;;;1.50;0.90;;;24.60;1.00;;;;;;5052854;28;20051;-62
2023/06/14 12:07:50;;;;;;;1.60;0.80;;;24.70;1.00;;;;;;5053098;28;20059;-62
2023/06/14 12:10:17;;;;;;;2.67;1.27;;;24.90;1.00;;;;;;5053169;28;20055;-63
2023/06/14 12:12:43;;;;;;;0.65;0.55;;;24.70;1.00;;;;;;5051539;28;20110;-65
2023/06/14 12:15:12;;;;;;;2.33;1.08;;;24.90;1.00;;;;;;5051541;28;20037;-65
2023/06/14 12:17:41;;;;;;;0.60;0.60;;;24.80;1.00;;;;;;5034969;28;20055;-64
2023/06/14 12:20:13;;;;;;;0.93;0.80;;;24.80;1.00;;;;;;5052741;28;20047;-62
2023/06/14 12:22:56;;;;;;;0.88;0.75;;;24.80;1.00;;;;;;5051693;28;20076;-62
2023/06/14 12:25:26;;;;;;;0.90;0.70;;;24.80;1.00;;;;;;5052593;28;20040;-64
2023/06/14 12:27:53;;;;;;;1.05;0.85;;;24.90;1.00;;;;;;5051359;28;20080;-64
2023/06/14 12:30:19;;;;;;;0.73;0.73;;;25.00;1.00;;;;;;5035018;28;20124;-64
2023/06/14 12:32:45;;;;;;;1.92;0.88;;;25.10;1.00;;;;;;5052921;28;20112;-62
2023/06/14 12:35:11;;;;;;;1.10;0.77;;;24.80;1.00;;;;;;5051309;28;20485;-63
2023/06/14 12:37:36;;;;;;;3.95;0.85;;;24.60;1.00;;;;;;5051152;28;20056;-63
2023/06/14 12:40:06;;;;;;;1.50;0.82;;;24.40;1.00;;;;;;5051192;28;20115;-62
2023/06/14 12:42:33;;;;;;;1.27;0.90;;;24.60;1.00;;;;;;5052810;28;20120;-62
2023/06/14 12:44:59;;;;;;;1.17;0.90;;;24.50;1.00;;;;;;5052800;28;20040;-62
2023/06/14 12:47:25;;;;;;;1.35;0.70;;;24.50;1.00;;;;;;5051230;28;20049;-62
2023/06/14 12:49:51;;;;;;;2.22;1.05;;;24.70;1.00;;;;;;5051211;28;20048;-66
2023/06/14 12:52:17;;;;;;;0.77;0.57;;;24.70;1.00;;;;;;5056248;28;20147;-62
2023/06/14 12:54:42;;;;;;;1.42;0.90;;;24.90;1.00;;;;;;5056358;28;20041;-62
2023/06/14 12:57:08;;;;;;;2.47;1.02;;;25.10;1.00;;;;;;5038588;28;20049;-62
2023/06/14 12:59:34;;;;;;;1.75;0.77;;;;;;;;;;5056351;28;20056;-62
2023/06/14 13:02:22;;;;;;;1.27;0.65;;;25.40;1.00;;;;;;5056600;28;20048;-62